createdAt,value
2022-08-17T00:00:33.261Z,31.02
2022-08-17T00:03:15.457Z,30.88
2022-08-17T00:05:52.053Z,31.02
2022-08-17T00:08:24.205Z,31.03
2022-08-17T00:10:53.817Z,31.05
2022-08-17T00:13:27.716Z,30.99
2022-08-17T00:15:59.668Z,31.03
2022-08-17T00:19:01.941Z,30.98
2022-08-17T00:21:23.727Z,31.02
2022-08-17T00:23:54.247Z,31.01
2022-08-17T00:26:34.579Z,31.03
2022-08-17T00:29:13.392Z,31.02
2022-08-17T00:31:48.528Z,31.05
2022-08-17T00:34:16.201Z,31.05
2022-08-17T00:36:43.969Z,31.06
2022-08-17T00:39:11.879Z,31.07
2022-08-17T00:41:42.581Z,31.05
2022-08-17T00:44:12.491Z,31.08
2022-08-17T00:46:43.314Z,31.06
2022-08-17T00:49:15.424Z,31.06
2022-08-17T00:51:49.721Z,31.05
2022-08-17T00:54:23.951Z,31.05
2022-08-17T00:56:57.553Z,30.96
2022-08-17T00:59:35.875Z,30.98
2022-08-17T01:02:07.716Z,30.93
2022-08-17T01:04:36.589Z,30.90
2022-08-17T01:07:06.225Z,30.91
2022-08-17T01:09:36.856Z,30.96
2022-08-17T01:12:06.957Z,30.97
2022-08-17T01:14:36.944Z,30.93
2022-08-17T01:17:07.895Z,30.91
2022-08-17T01:19:39.404Z,30.92
2022-08-17T01:22:18.929Z,30.89
2022-08-17T01:25:08.496Z,30.87
2022-08-17T01:27:38.414Z,30.91
2022-08-17T01:30:57.791Z,30.90
2022-08-17T01:32:59.669Z,30.86
2022-08-17T01:35:27.493Z,30.86
2022-08-17T01:37:56.628Z,30.82
2022-08-17T01:40:39.828Z,30.78
2022-08-17T01:43:22.005Z,30.77
2022-08-17T01:46:03.907Z,30.77
2022-08-17T01:48:37.201Z,30.80
2022-08-17T01:51:07.998Z,30.75
2022-08-17T01:53:40.960Z,30.71
2022-08-17T01:56:14.330Z,30.70
2022-08-17T01:58:44.062Z,30.68
2022-08-17T02:01:18.861Z,30.70
2022-08-17T02:03:53.194Z,30.67
2022-08-17T02:06:31.654Z,30.64
2022-08-17T02:09:18.731Z,30.61
2022-08-17T02:11:51.225Z,30.62
2022-08-17T02:14:18.539Z,30.60
2022-08-17T02:16:45.904Z,30.57
2022-08-17T02:19:16.631Z,30.52
2022-08-17T02:21:48.574Z,30.55
2022-08-17T02:25:00.591Z,30.54
2022-08-17T02:27:25.428Z,30.53
2022-08-17T02:29:53.095Z,30.56
2022-08-17T02:32:27.841Z,30.51
2022-08-17T02:34:57.411Z,30.50
2022-08-17T02:37:26.194Z,30.45
2022-08-17T02:39:57.300Z,30.51
2022-08-17T02:42:43.677Z,30.44
2022-08-17T02:45:16.876Z,30.42
2022-08-17T02:47:44.622Z,30.40
2022-08-17T02:50:14.826Z,30.36
2022-08-17T02:52:47.506Z,30.33
2022-08-17T02:55:32.995Z,30.33
2022-08-17T02:58:00.461Z,30.32
2022-08-17T03:00:36.107Z,30.31
2022-08-17T03:03:06.442Z,30.29
2022-08-17T03:05:36.112Z,30.17
2022-08-17T03:08:05.549Z,30.04
2022-08-17T03:10:33.653Z,30.19
2022-08-17T03:13:02.021Z,30.21
2022-08-17T03:15:34.478Z,30.19
2022-08-17T03:18:06.888Z,30.16
2022-08-17T03:20:37.207Z,30.10
2022-08-17T03:23:04.878Z,30.14
2022-08-17T03:25:39.153Z,30.10
2022-08-17T03:28:07.293Z,30.08
2022-08-17T03:30:37.026Z,30.05
2022-08-17T03:33:07.783Z,29.97
2022-08-17T03:35:37.918Z,30.01
2022-08-17T03:38:05.830Z,29.98
2022-08-17T03:40:57.941Z,29.99
2022-08-17T03:43:22.734Z,29.96
2022-08-17T03:46:27.298Z,29.92
2022-08-17T03:49:20.892Z,29.93
2022-08-17T03:52:07.070Z,29.93
2022-08-17T03:54:53.598Z,29.91
2022-08-17T03:57:21.297Z,29.93
2022-08-17T03:59:48.668Z,29.92
2022-08-17T04:02:31.235Z,29.88
2022-08-17T04:04:59.230Z,29.95
2022-08-17T04:07:29.467Z,29.87
2022-08-17T04:09:58.444Z,29.82
2022-08-17T04:12:27.093Z,29.77
2022-08-17T04:14:55.372Z,29.62
2022-08-17T04:17:25.921Z,29.73
2022-08-17T04:19:54.601Z,29.68
2022-08-17T04:22:31.431Z,29.67
2022-08-17T04:25:27.590Z,29.64
2022-08-17T04:27:56.865Z,29.73
2022-08-17T04:30:24.777Z,29.75
2022-08-17T04:33:08.833Z,29.76
2022-08-17T04:35:45.259Z,29.73
2022-08-17T04:38:15.612Z,29.75
2022-08-17T04:41:02.123Z,29.74
2022-08-17T04:43:31.484Z,29.72
2022-08-17T04:46:07.257Z,29.74
2022-08-17T04:48:37.771Z,29.77
2022-08-17T04:51:13.949Z,29.70
2022-08-17T04:53:44.758Z,29.74
2022-08-17T04:56:16.874Z,29.73
2022-08-17T04:58:49.952Z,29.72
2022-08-17T05:01:23.194Z,29.72
2022-08-17T05:03:59.384Z,29.72
2022-08-17T05:06:28.490Z,29.74
2022-08-17T05:08:57.391Z,29.71
2022-08-17T05:11:27.413Z,29.67
2022-08-17T05:13:56.518Z,29.71
2022-08-17T05:16:26.311Z,29.67
2022-08-17T05:18:54.073Z,29.63
2022-08-17T05:21:23.310Z,29.59
2022-08-17T05:23:56.200Z,29.60
2022-08-17T05:26:26.116Z,29.60
2022-08-17T05:28:56.986Z,29.57
2022-08-17T05:31:25.366Z,29.57
2022-08-17T05:33:53.499Z,29.58
2022-08-17T05:36:38.097Z,29.57
2022-08-17T05:39:09.321Z,29.58
2022-08-17T05:41:46.656Z,29.61
2022-08-17T05:44:14.100Z,29.66
2022-08-17T05:46:45.911Z,29.66
2022-08-17T05:49:18.205Z,29.66
2022-08-17T05:52:10.996Z,29.69
2022-08-17T05:54:51.773Z,29.67
2022-08-17T05:57:58.447Z,29.66
2022-08-17T06:01:03.970Z,29.69
2022-08-17T06:04:26.909Z,29.76
2022-08-17T06:07:19.260Z,29.73
2022-08-17T06:09:53.545Z,29.64
2022-08-17T06:12:39.322Z,29.74
2022-08-17T06:15:26.617Z,29.79
2022-08-17T06:18:02.104Z,29.75
2022-08-17T06:20:38.876Z,29.78
2022-08-17T06:23:14.782Z,29.80
2022-08-17T06:25:56.483Z,29.80
2022-08-17T06:28:50.989Z,29.89
2022-08-17T06:31:27.855Z,29.80
2022-08-17T06:33:58.423Z,29.85
2022-08-17T06:37:01.849Z,29.84
2022-08-17T06:39:54.581Z,29.88
2022-08-17T06:43:05.150Z,29.87
2022-08-17T06:45:39.579Z,29.97
2022-08-17T06:48:24.702Z,29.89
2022-08-17T06:51:00.388Z,30.03
2022-08-17T06:53:43.236Z,29.93
2022-08-17T06:56:14.598Z,30.10
2022-08-17T06:58:45.095Z,30.10
2022-08-17T07:01:28.920Z,29.98
2022-08-17T07:04:11.628Z,30.05
2022-08-17T07:06:47.512Z,30.00
2022-08-17T07:09:26.108Z,30.12
2022-08-17T07:12:15.449Z,30.02
2022-08-17T07:14:54.457Z,30.14
2022-08-17T07:17:46.461Z,30.18
2022-08-17T07:20:16.099Z,30.27
2022-08-17T07:22:59.853Z,30.31
2022-08-17T07:25:30.836Z,30.38
2022-08-17T07:28:01.428Z,30.39
2022-08-17T07:30:45.653Z,30.21
2022-08-17T07:33:24.745Z,30.34
2022-08-17T07:35:52.674Z,30.44
2022-08-17T07:38:27.911Z,30.59
2022-08-17T07:41:05.460Z,30.54
2022-08-17T07:43:41.967Z,30.76
2022-08-17T07:46:35.773Z,30.90
2022-08-17T07:49:07.060Z,31.01
2022-08-17T07:51:39.161Z,31.14
2022-08-17T07:54:18.352Z,31.30
2022-08-17T07:56:49.911Z,31.22
2022-08-17T07:59:33.204Z,31.46
2022-08-17T08:02:38.010Z,31.47
2022-08-17T08:05:06.668Z,31.49
2022-08-17T08:07:42.812Z,31.47
2022-08-17T08:10:25.566Z,31.59
2022-08-17T08:13:16.002Z,31.44
2022-08-17T08:15:56.131Z,31.40
2022-08-17T08:18:55.662Z,31.32
2022-08-17T08:21:47.889Z,31.17
2022-08-17T08:24:16.672Z,31.19
2022-08-17T08:27:01.964Z,31.17
2022-08-17T08:29:43.220Z,31.17
2022-08-17T08:32:28.790Z,31.08
2022-08-17T08:35:12.923Z,30.95
2022-08-17T08:37:59.119Z,30.80
2022-08-17T08:40:36.415Z,30.83
2022-08-17T08:43:32.049Z,30.87
2022-08-17T08:46:19.642Z,30.84
2022-08-17T08:49:11.950Z,30.82
2022-08-17T08:51:58.514Z,30.79
2022-08-17T08:55:10.525Z,30.51
2022-08-17T08:58:04.644Z,30.39
2022-08-17T09:00:39.385Z,30.45
2022-08-17T09:03:50.883Z,30.42
2022-08-17T09:06:59.210Z,30.43
2022-08-17T09:09:35.860Z,30.29
2022-08-17T09:12:17.857Z,30.41
2022-08-17T09:15:01.990Z,30.31
2022-08-17T09:19:01.043Z,30.32
2022-08-17T09:21:18.210Z,30.24
2022-08-17T09:24:10.850Z,30.34
2022-08-17T09:27:06.952Z,30.40
2022-08-17T09:29:39.475Z,30.36
2022-08-17T09:32:23.020Z,30.40
2022-08-17T09:34:55.494Z,30.35
2022-08-17T09:38:02.187Z,30.38
2022-08-17T09:40:54.786Z,30.33
2022-08-17T09:43:39.795Z,30.29
2022-08-17T09:46:31.168Z,30.38
2022-08-17T09:49:10.166Z,30.41
2022-08-17T09:51:44.546Z,30.44
2022-08-17T09:54:38.599Z,30.45
2022-08-17T09:57:31.036Z,30.46
2022-08-17T10:00:17.322Z,30.53
2022-08-17T10:02:52.002Z,30.58
2022-08-17T10:05:47.525Z,30.53
2022-08-17T10:08:23.483Z,30.57
2022-08-17T10:11:12.202Z,30.67
2022-08-17T10:13:53.311Z,30.77
2022-08-17T10:16:44.942Z,30.91
2022-08-17T10:19:38.446Z,31.02
2022-08-17T10:22:38.732Z,31.04
2022-08-17T10:25:48.585Z,31.06
2022-08-17T10:28:28.758Z,31.16
2022-08-17T10:31:30.991Z,31.28
2022-08-17T10:34:13.569Z,31.27
2022-08-17T10:37:10.364Z,31.19
2022-08-17T10:39:50.461Z,31.19
2022-08-17T10:43:01.072Z,31.14
2022-08-17T10:45:37.814Z,31.18
2022-08-17T10:48:08.462Z,31.13
2022-08-17T10:51:29.009Z,31.36
2022-08-17T10:53:58.506Z,31.45
2022-08-17T10:56:42.538Z,31.54
2022-08-17T10:59:10.299Z,31.61
2022-08-17T11:01:43.620Z,31.59
2022-08-17T11:04:32.738Z,31.69
2022-08-17T11:07:37.690Z,31.83
2022-08-17T11:10:37.778Z,32.70
2022-08-17T11:13:46.465Z,33.41
2022-08-17T11:16:51.389Z,33.82
2022-08-17T11:19:42.291Z,34.34
2022-08-17T11:22:22.233Z,34.72
2022-08-17T11:24:53.855Z,35.09
2022-08-17T11:27:30.140Z,35.46
2022-08-17T11:30:04.700Z,35.61
2022-08-17T11:32:47.100Z,35.88
2022-08-17T11:35:21.784Z,36.12
2022-08-17T11:38:28.486Z,36.32
2022-08-17T11:41:41.330Z,36.58
2022-08-17T11:44:28.984Z,36.73
2022-08-17T11:47:32.481Z,36.94
2022-08-17T11:50:39.504Z,37.02
2022-08-17T11:53:07.478Z,37.23
2022-08-17T11:55:39.392Z,37.45
2022-08-17T11:58:29.694Z,37.24
2022-08-17T12:01:01.163Z,36.89
2022-08-17T12:03:32.074Z,36.91
2022-08-17T12:06:11.934Z,37.18
2022-08-17T12:08:46.037Z,36.94
2022-08-17T12:12:11.196Z,37.44
2022-08-17T12:14:45.011Z,36.72
2022-08-17T12:17:39.236Z,37.08
2022-08-17T12:20:14.649Z,37.00
2022-08-17T12:23:01.471Z,37.53
2022-08-17T12:25:43.799Z,37.78
2022-08-17T12:28:29.974Z,37.57
2022-08-17T12:31:05.054Z,37.36
2022-08-17T12:33:32.476Z,37.63
2022-08-17T12:36:07.672Z,37.78
2022-08-17T12:38:37.322Z,36.84
2022-08-17T12:41:27.386Z,36.80
2022-08-17T12:44:09.710Z,36.75
2022-08-17T12:47:02.401Z,36.83
2022-08-17T12:49:36.048Z,37.14
2022-08-17T12:52:15.022Z,37.31
2022-08-17T12:55:06.491Z,36.66
2022-08-17T12:57:44.807Z,36.71
2022-08-17T13:00:25.989Z,36.09
2022-08-17T13:02:59.310Z,36.58
2022-08-17T13:05:28.967Z,36.56
2022-08-17T13:07:59.849Z,35.85
2022-08-17T13:10:36.048Z,35.43
2022-08-17T13:13:17.832Z,35.61
2022-08-17T13:16:02.203Z,35.86
2022-08-17T13:18:53.427Z,35.97
2022-08-17T13:21:22.745Z,36.17
2022-08-17T13:23:58.454Z,35.48
2022-08-17T13:26:29.624Z,35.81
2022-08-17T13:28:57.768Z,36.25
2022-08-17T13:31:30.658Z,35.95
2022-08-17T13:34:17.140Z,35.63
2022-08-17T13:36:47.947Z,35.82
2022-08-17T13:39:26.237Z,35.99
2022-08-17T13:41:56.606Z,36.51
2022-08-17T13:44:39.535Z,35.99
2022-08-17T13:47:18.181Z,35.88
2022-08-17T13:49:48.798Z,36.23
2022-08-17T13:52:43.740Z,35.38
2022-08-17T13:55:23.193Z,35.91
2022-08-17T13:58:03.950Z,35.31
2022-08-17T14:00:36.899Z,35.50
2022-08-17T14:03:05.855Z,35.74
2022-08-17T14:05:34.664Z,35.67
2022-08-17T14:08:06.797Z,35.91
2022-08-17T14:10:36.768Z,35.97
2022-08-17T14:13:05.245Z,35.84
2022-08-17T14:15:55.429Z,35.57
2022-08-17T14:18:42.035Z,35.40
2022-08-17T14:21:10.672Z,35.15
2022-08-17T14:23:39.534Z,35.03
2022-08-17T14:26:07.059Z,34.23
2022-08-17T14:28:35.416Z,34.96
2022-08-17T14:31:04.677Z,35.06
2022-08-17T14:33:33.465Z,35.38
2022-08-17T14:36:01.401Z,35.73
2022-08-17T14:38:28.967Z,35.99
2022-08-17T14:40:56.439Z,36.16
2022-08-17T14:43:26.332Z,35.76
2022-08-17T14:45:53.555Z,35.87
2022-08-17T14:48:20.608Z,35.65
2022-08-17T14:50:47.881Z,35.61
2022-08-17T14:53:16.500Z,35.49
2022-08-17T14:55:47.078Z,34.96
2022-08-17T14:58:14.900Z,35.09
2022-08-17T15:00:45.052Z,34.77
2022-08-17T15:03:12.616Z,34.74
2022-08-17T15:05:42.508Z,34.76
2022-08-17T15:08:11.488Z,34.64
2022-08-17T15:10:39.522Z,34.33
2022-08-17T15:13:19.812Z,34.55
2022-08-17T15:15:48.067Z,34.02
2022-08-17T15:18:15.781Z,34.21
2022-08-17T15:20:44.609Z,34.50
2022-08-17T15:23:17.158Z,34.35
2022-08-17T15:25:45.032Z,33.72
2022-08-17T15:28:12.795Z,33.65
2022-08-17T15:30:43.509Z,33.64
2022-08-17T15:33:24.118Z,33.73
2022-08-17T15:35:54.255Z,33.50
2022-08-17T15:38:23.060Z,33.65
2022-08-17T15:40:54.215Z,33.12
2022-08-17T15:43:27.681Z,32.99
2022-08-17T15:46:10.128Z,33.18
2022-08-17T15:48:44.750Z,33.10
2022-08-17T15:51:19.873Z,33.19
2022-08-17T15:53:52.243Z,33.52
2022-08-17T15:56:22.728Z,32.90
2022-08-17T15:58:50.378Z,32.88
2022-08-17T16:01:41.868Z,33.19
2022-08-17T16:04:21.243Z,33.26
2022-08-17T16:06:55.698Z,33.41
2022-08-17T16:09:26.132Z,33.18
2022-08-17T16:11:55.689Z,33.35
2022-08-17T16:14:28.896Z,33.03
2022-08-17T16:17:03.808Z,32.67
2022-08-17T16:19:32.715Z,33.09
2022-08-17T16:22:00.239Z,33.25
2022-08-17T16:24:27.719Z,33.23
2022-08-17T16:26:55.833Z,33.21
2022-08-17T16:29:23.375Z,33.10
2022-08-17T16:31:51.587Z,32.84
2022-08-17T16:34:19.278Z,32.74
2022-08-17T16:36:53.703Z,32.68
2022-08-17T16:39:27.782Z,32.40
2022-08-17T16:41:56.273Z,32.08
2022-08-17T16:44:23.682Z,32.60
2022-08-17T16:46:51.013Z,32.64
2022-08-17T16:49:35.404Z,32.58
2022-08-17T16:52:05.773Z,32.56
2022-08-17T16:54:35.580Z,32.53
2022-08-17T16:57:05.432Z,32.45
2022-08-17T16:59:41.042Z,32.25
2022-08-17T17:02:15.106Z,32.30
2022-08-17T17:05:30.256Z,32.35
2022-08-17T17:08:19.000Z,32.41
2022-08-17T17:10:51.031Z,32.25
2022-08-17T17:13:21.206Z,32.40
2022-08-17T17:16:19.715Z,32.26
2022-08-17T17:19:06.801Z,32.35
2022-08-17T17:21:58.056Z,31.86
2022-08-17T17:24:30.679Z,31.89
2022-08-17T17:27:17.289Z,31.68
2022-08-17T17:29:59.768Z,31.80
2022-08-17T17:32:51.809Z,31.48
2022-08-17T17:35:40.670Z,31.50
2022-08-17T17:38:17.152Z,31.38
2022-08-17T17:40:50.758Z,31.44
2022-08-17T17:43:38.203Z,31.36
2022-08-17T17:46:27.333Z,31.29
2022-08-17T17:48:57.879Z,31.40
2022-08-17T17:51:54.994Z,31.35
2022-08-17T17:54:34.125Z,31.31
2022-08-17T17:57:07.144Z,31.30
2022-08-17T17:59:44.205Z,31.37
2022-08-17T18:02:52.012Z,31.34
2022-08-17T18:05:44.449Z,31.35
2022-08-17T18:08:47.581Z,31.19
2022-08-17T18:11:34.806Z,31.03
2022-08-17T18:14:17.670Z,30.86
2022-08-17T18:16:46.651Z,30.83
2022-08-17T18:19:16.252Z,30.85
2022-08-17T18:21:49.212Z,30.71
2022-08-17T18:24:33.043Z,30.55
2022-08-17T18:27:08.689Z,30.45
2022-08-17T18:29:44.459Z,30.11
2022-08-17T18:32:14.321Z,30.20
2022-08-17T18:34:49.709Z,30.12
2022-08-17T18:37:50.615Z,29.88
2022-08-17T18:40:20.659Z,29.85
2022-08-17T18:42:54.068Z,29.49
2022-08-17T18:45:35.915Z,29.19
2022-08-17T18:48:03.729Z,29.19
2022-08-17T18:50:45.030Z,28.82
2022-08-17T18:53:39.852Z,28.59
2022-08-17T18:56:30.687Z,28.45
2022-08-17T18:59:07.301Z,28.23
2022-08-17T19:02:21.622Z,28.29
2022-08-17T19:05:11.340Z,28.14
2022-08-17T19:07:48.300Z,28.28
2022-08-17T19:10:31.930Z,28.21
2022-08-17T19:13:24.138Z,28.34
2022-08-17T19:16:11.741Z,28.21
2022-08-17T19:18:58.109Z,28.28
2022-08-17T19:21:43.846Z,28.25
2022-08-17T19:24:25.590Z,28.33
2022-08-17T19:27:34.778Z,28.35
2022-08-17T19:30:14.087Z,28.43
2022-08-17T19:32:41.486Z,28.28
2022-08-17T19:35:16.794Z,28.12
2022-08-17T19:37:56.653Z,28.02
2022-08-17T19:40:53.996Z,27.94
2022-08-17T19:43:27.587Z,27.94
2022-08-17T19:46:11.365Z,27.89
2022-08-17T19:48:45.715Z,27.80
2022-08-17T19:51:20.778Z,27.86
2022-08-17T19:54:05.528Z,27.73
2022-08-17T19:56:47.799Z,27.05
2022-08-17T19:59:36.012Z,27.23
2022-08-17T20:02:22.428Z,26.73
2022-08-17T20:04:51.251Z,27.23
2022-08-17T20:07:32.084Z,26.68
2022-08-17T20:10:13.983Z,26.99
2022-08-17T20:12:44.889Z,26.60
2022-08-17T20:15:26.029Z,25.37
2022-08-17T20:17:57.405Z,26.06
2022-08-17T20:20:30.881Z,26.04
2022-08-17T20:23:30.934Z,26.25
2022-08-17T20:26:13.818Z,26.38
2022-08-17T20:29:05.671Z,26.58
2022-08-17T20:31:55.576Z,26.61
2022-08-17T20:34:37.348Z,26.56
2022-08-17T20:37:08.616Z,26.72
2022-08-17T20:39:40.522Z,26.74
2022-08-17T20:42:22.706Z,26.86
2022-08-17T20:44:58.194Z,26.86
2022-08-17T20:48:00.846Z,26.95
2022-08-17T20:50:41.788Z,26.65
2022-08-17T20:53:15.022Z,26.70
2022-08-17T20:55:51.910Z,26.92
2022-08-17T20:58:23.359Z,27.11
2022-08-17T21:00:56.645Z,27.28
2022-08-17T21:03:24.293Z,27.32
2022-08-17T21:06:24.908Z,27.41
2022-08-17T21:09:18.064Z,27.47
2022-08-17T21:12:05.818Z,27.56
2022-08-17T21:14:52.666Z,27.50
2022-08-17T21:17:42.581Z,27.57
2022-08-17T21:20:32.632Z,27.49
2022-08-17T21:23:18.376Z,27.52
2022-08-17T21:26:19.779Z,27.46
2022-08-17T21:29:30.210Z,27.36
2022-08-17T21:32:05.449Z,27.39
2022-08-17T21:34:44.703Z,27.37
2022-08-17T21:37:23.420Z,27.39
2022-08-17T21:39:59.884Z,27.57
2022-08-17T21:42:31.911Z,27.64
2022-08-17T21:45:20.831Z,27.67
2022-08-17T21:48:07.147Z,27.59
2022-08-17T21:50:35.857Z,27.59
2022-08-17T21:53:04.369Z,27.44
2022-08-17T21:55:34.835Z,27.35
2022-08-17T21:58:13.613Z,27.35
2022-08-17T22:00:41.705Z,27.28
2022-08-17T22:03:26.287Z,27.18
2022-08-17T22:05:53.975Z,27.30
2022-08-17T22:08:24.761Z,27.22
2022-08-17T22:11:01.414Z,27.20
2022-08-17T22:13:29.726Z,27.39
2022-08-17T22:16:15.373Z,27.49
2022-08-17T22:18:53.942Z,27.54
2022-08-17T22:21:22.538Z,27.57
2022-08-17T22:24:23.282Z,27.60
2022-08-17T22:27:07.825Z,27.64
2022-08-17T22:29:54.372Z,27.66
2022-08-17T22:32:42.406Z,27.61
2022-08-17T22:35:33.819Z,27.74
2022-08-17T22:38:19.387Z,27.82
2022-08-17T22:40:51.266Z,27.78
2022-08-17T22:43:26.444Z,27.79
2022-08-17T22:45:59.203Z,27.74
2022-08-17T22:48:28.993Z,27.69
2022-08-17T22:51:19.695Z,27.53
2022-08-17T22:54:31.587Z,27.41
2022-08-17T22:57:20.736Z,27.24
2022-08-17T22:59:51.909Z,27.07
2022-08-17T23:02:34.349Z,26.97
2022-08-17T23:05:14.341Z,26.82
2022-08-17T23:07:43.467Z,26.61
2022-08-17T23:10:12.367Z,26.68
2022-08-17T23:12:40.076Z,26.63
2022-08-17T23:15:16.318Z,26.57
2022-08-17T23:17:44.452Z,26.46
2022-08-17T23:20:15.480Z,26.25
2022-08-17T23:22:51.812Z,26.17
2022-08-17T23:25:27.270Z,26.49
2022-08-17T23:27:58.080Z,26.63
2022-08-17T23:30:25.867Z,26.75
2022-08-17T23:32:54.574Z,26.85
2022-08-17T23:35:40.242Z,26.81
2022-08-17T23:38:12.025Z,26.84
2022-08-17T23:40:44.037Z,26.87
2022-08-17T23:46:00.563Z,26.84
2022-08-17T23:48:35.897Z,26.76
2022-08-17T23:51:09.368Z,26.76
2022-08-17T23:53:40.513Z,26.76
2022-08-17T23:56:11.495Z,26.79
2022-08-17T23:58:44.170Z,26.83
